KEGE

Eagle County Regional Airport

Eagle, Colorado, USA
METAR KEGE 210356Z 10004KT 10SM FEW060 BKN080 03/00 A2968 RMK AO2 RAE21 SLP062 P0000 T00280000
Observed Flight Rules
Jan-21 @ 03:56 UTC (56 minutes ago) Visual Flight Rules
Wind Visibility Clouds
100° at 4 knots 10 miles
  • Few at 6,000' AGL
  • Broken at 8,000' AGL
Temperatures Readings Precipitation
Current 3°C / 37°F
Dewpoint 0°C / 32°F
Humidity 81%
Altimeter 29.68" Hg
Pressure 1006.2 hPa
Elevation 1993
Current Rain 0.005
METAR KEGE 210356Z 10004KT 10SM FEW060 BKN080 03/00 A2968 RMK AO2 RAE21 SLP062 P0000 T00280000
Observed Flight Rules
Jan-21 @ 03:56 UTC
(56 minutes ago)
VFR
Wind Visibility
100° at 4 knots 10 miles
Clouds
  • Few at 6,000' AGL
  • Broken at 8,000' AGL
Temperature Dewpoint
3°C / 37°F 0°C / 32°F
Humidity Altimeter Pressure
81% 29.68" Hg 1006.2 hPa
Current Rain
0.005